Accueil
METAR-TAF:

METAR-TAF

Aéroports :

Aéroport de Newquay Cornouailles

Newquay Cornwall, Angleterre

latitude: 50-26N, longitude: 005-00W, altitude: 119 m

Observation

Le bulletin a été fait il y a 39 minutes, à 05:50 UTC
Vent 5 kt de est
Température 8°C
Humidité 81%
Pression 1037 hPa
Visibilité 10 km ou plus
Quelques nuages à une hauteur de 3000 ft

METAR: EGHQ 240550Z 09005KT 9999 FEW030 08/05 Q1037

Heure: 07:29 (06:29 UTC)

Prévision

Le bulletin a été fait il y a 13 heures et 21 minutes, à 17:08 UTC
Prévision valable du 23 à 18 UTC au 23 à 21 UTC
Vent 14 kt de nord
Visibilité 10 km ou plus
Quelques nuages à une hauteur de 3000 ft

TAF: EGHQ 231708Z 2318/2321 35014KT 9999 FEW030

Observations et prévisions météorologiques de plus de 4000 aéroports (messages METAR et TAF).

Les stations disponibles sont représentées par des disques jaunes et rouges sur la carte.

Passer la souris dessus pour voir le nom de la station.

Cliquer dessus pour voir les observations et prévisions météorologiques.

Pour changer de carte: cliquez sur les boutons verts avec une croix noire pour zoomer, sur le bouton vert avec un tiret pour effectuer un zoom arrière, ou sur les flèches vertes pour les cartes adjacentes.


METAR-TAF: